Time;durP1;ratioP1;P1;durP2;ratioP2;P2;SDS_P1;SDS_P2;PMS_P1;PMS_P2;Temp;Humidity;BMP_temperature;BMP_pressure;BME280_temperature;BME280_humidity;BME280_pressure;Samples;Min_cycle;Max_cycle;Signal;HPM_P1;HPM_P2
2022/01/01 06:00:14;;;;;;;7.80;7.00;;;10.60;97.20;;;;;;1718056;28;20178;-88
2022/01/01 06:01:04;;;;;;;8.27;7.45;;;10.60;97.20;;;;;;1718394;28;20232;-88
2022/01/01 06:01:56;;;;;;;8.80;7.10;;;10.50;97.20;;;;;;1718159;28;20197;-88
2022/01/01 06:02:47;;;;;;;7.53;6.82;;;10.50;97.20;;;;;;1718484;28;20209;-87
2022/01/01 06:03:39;;;;;;;8.30;7.53;;;10.50;97.20;;;;;;1712902;28;20269;-89
2022/01/01 06:04:29;;;;;;;8.20;7.30;;;10.50;97.20;;;;;;1711700;28;20643;-88
2022/01/01 06:05:21;;;;;;;7.67;7.00;;;10.50;97.20;;;;;;1711750;28;20583;-87
2022/01/01 06:06:12;;;;;;;7.55;6.85;;;10.50;97.20;;;;;;1711418;28;20199;-87
2022/01/01 06:07:04;;;;;;;8.40;6.97;;;10.50;97.20;;;;;;1711422;28;20229;-87
2022/01/01 06:07:56;;;;;;;7.57;6.82;;;10.50;97.20;;;;;;1711955;28;20225;-87
2022/01/01 06:08:48;;;;;;;8.20;7.40;;;10.50;97.20;;;;;;1710863;28;20206;-87
2022/01/01 06:09:39;;;;;;;8.35;7.55;;;10.50;97.20;;;;;;1711866;28;20205;-87
2022/01/01 06:10:30;;;;;;;9.43;8.50;;;10.50;97.20;;;;;;1711785;28;20217;-88
2022/01/01 06:11:21;;;;;;;10.57;9.30;;;10.40;97.20;;;;;;1711313;28;20198;-88
2022/01/01 06:12:13;;;;;;;12.53;11.33;;;10.40;97.20;;;;;;1711599;28;20285;-88
2022/01/01 06:13:05;;;;;;;12.57;11.27;;;10.40;97.20;;;;;;1714548;28;20198;-88
2022/01/01 06:13:57;;;;;;;14.63;12.98;;;10.40;97.20;;;;;;1718077;28;20205;-87
2022/01/01 06:14:47;;;;;;;14.55;12.57;;;10.40;97.20;;;;;;1718100;28;20567;-87
2022/01/01 06:15:43;;;;;;;11.03;9.93;;;10.40;97.20;;;;;;1718144;28;20232;-87
2022/01/01 06:16:33;;;;;;;10.60;9.48;;;10.40;97.20;;;;;;1718092;28;20210;-87
2022/01/01 06:17:25;;;;;;;10.30;9.30;;;10.40;97.20;;;;;;1718006;28;20186;-88
2022/01/01 06:18:16;;;;;;;10.65;9.55;;;10.30;97.20;;;;;;1717712;28;20198;-87
2022/01/01 06:19:08;;;;;;;9.73;8.80;;;10.30;97.20;;;;;;1718492;28;20281;-87
2022/01/01 06:19:58;;;;;;;10.32;9.32;;;10.30;97.20;;;;;;1718406;28;20202;-87
2022/01/01 06:20:50;;;;;;;10.13;8.50;;;10.30;97.20;;;;;;1717771;28;20685;-87
2022/01/01 06:21:41;;;;;;;9.65;8.80;;;10.30;97.20;;;;;;1718323;28;20198;-87
2022/01/01 06:22:33;;;;;;;8.33;7.00;;;10.30;97.20;;;;;;1718004;28;20194;-87
2022/01/01 06:23:23;;;;;;;8.57;7.30;;;10.30;97.20;;;;;;1718549;28;20194;-87
2022/01/01 06:24:15;;;;;;;9.40;7.60;;;10.30;97.20;;;;;;1719212;28;20249;-87
2022/01/01 06:25:07;;;;;;;7.72;7.03;;;10.20;97.20;;;;;;1718625;28;20202;-88
2022/01/01 06:25:58;;;;;;;8.38;7.57;;;10.20;97.20;;;;;;1718843;28;20198;-87
2022/01/01 06:26:49;;;;;;;8.20;7.40;;;10.20;97.20;;;;;;1719028;28;20206;-87
2022/01/01 06:27:41;;;;;;;9.13;7.20;;;10.10;97.20;;;;;;1718039;28;20198;-87
2022/01/01 06:28:31;;;;;;;7.85;7.15;;;10.10;97.20;;;;;;1719279;28;20212;-87
2022/01/01 06:29:23;;;;;;;8.73;7.73;;;10.20;97.20;;;;;;1718878;28;20292;-87
2022/01/01 06:30:14;;;;;;;9.15;8.25;;;10.10;97.20;;;;;;1718912;28;20201;-87
2022/01/01 06:31:07;;;;;;;8.77;7.97;;;10.10;97.20;;;;;;1719580;28;20212;-87
2022/01/01 06:32:04;;;;;;;6.75;6.15;;;10.10;97.20;;;;;;1719421;28;20205;-89
2022/01/01 06:32:55;;;;;;;7.22;6.53;;;10.10;97.20;;;;;;1718738;28;20276;-88
2022/01/01 06:33:46;;;;;;;6.40;5.80;;;10.10;97.20;;;;;;1719249;28;20205;-87
2022/01/01 06:34:38;;;;;;;6.30;5.70;;;10.10;97.20;;;;;;1718181;28;20273;-87
2022/01/01 06:35:29;;;;;;;6.53;5.93;;;10.10;97.20;;;;;;1719022;28;20449;-87
2022/01/01 06:36:20;;;;;;;7.00;6.30;;;10.10;97.20;;;;;;1718528;28;20198;-87
2022/01/01 06:37:11;;;;;;;6.55;5.95;;;10.10;97.20;;;;;;1718284;28;20206;-87
2022/01/01 06:38:03;;;;;;;7.50;6.40;;;10.10;97.20;;;;;;1718225;28;20218;-87
2022/01/01 06:38:54;;;;;;;7.80;7.00;;;10.10;97.20;;;;;;1718362;28;20457;-87
2022/01/01 06:39:46;;;;;;;6.97;6.27;;;10.10;97.20;;;;;;1718613;28;20230;-88
2022/01/01 06:40:39;;;;;;;8.05;7.25;;;10.10;97.20;;;;;;1718757;28;20456;-87
2022/01/01 06:41:31;;;;;;;9.25;8.02;;;10.10;97.20;;;;;;1718665;28;20202;-87
2022/01/01 06:42:22;;;;;;;11.70;10.20;;;10.10;97.20;;;;;;1719071;28;20202;-87
2022/01/01 06:43:16;;;;;;;14.07;12.57;;;10.10;97.20;;;;;;1719317;28;20186;-87
2022/01/01 06:44:06;;;;;;;17.98;13.50;;;10.10;97.20;;;;;;1719213;28;20213;-87
2022/01/01 06:44:58;;;;;;;19.73;13.57;;;10.10;97.20;;;;;;1719595;28;20200;-87
2022/01/01 06:45:49;;;;;;;20.80;15.82;;;10.10;97.20;;;;;;1719128;28;20205;-87
2022/01/01 06:46:43;;;;;;;17.88;14.43;;;10.10;97.20;;;;;;1718579;28;20200;-87
2022/01/01 06:47:33;;;;;;;14.95;11.68;;;10.10;97.20;;;;;;1718695;28;20202;-88
2022/01/01 06:48:25;;;;;;;16.10;11.77;;;10.10;97.20;;;;;;1718987;28;20194;-88
2022/01/01 06:49:16;;;;;;;11.48;9.75;;;10.10;97.20;;;;;;1718964;28;20213;-87
2022/01/01 06:50:09;;;;;;;10.20;8.53;;;10.10;97.20;;;;;;1719180;28;20222;-87
2022/01/01 06:51:00;;;;;;;9.80;8.80;;;10.20;97.20;;;;;;1719062;28;20209;-87
2022/01/01 06:51:52;;;;;;;9.98;8.73;;;10.20;97.20;;;;;;1719025;28;20577;-88
2022/01/01 06:52:44;;;;;;;9.27;7.45;;;10.20;97.20;;;;;;1719306;28;20631;-89
2022/01/01 06:53:36;;;;;;;8.52;7.57;;;10.20;97.20;;;;;;1718877;28;20206;-87
2022/01/01 06:54:26;;;;;;;7.07;6.38;;;10.20;97.20;;;;;;1719154;28;20210;-87
2022/01/01 06:55:19;;;;;;;7.77;6.90;;;10.20;97.20;;;;;;1718717;28;20301;-87
2022/01/01 06:56:11;;;;;;;7.40;6.70;;;10.20;97.20;;;;;;1719456;28;20210;-88
2022/01/01 06:57:02;;;;;;;9.88;6.55;;;10.20;97.20;;;;;;1718963;28;20643;-88
2022/01/01 06:57:53;;;;;;;6.93;6.25;;;10.20;97.20;;;;;;1717743;28;20210;-87
2022/01/01 06:58:45;;;;;;;7.18;6.50;;;10.20;97.20;;;;;;1719383;28;20209;-88
2022/01/01 06:59:36;;;;;;;8.02;6.85;;;10.30;97.20;;;;;;1719031;28;20194;-88
2022/01/01 07:00:27;;;;;;;8.80;7.97;;;10.30;97.20;;;;;;1719187;28;20201;-87
2022/01/01 07:01:19;;;;;;;11.00;8.10;;;10.30;97.20;;;;;;1719809;28;20258;-88
2022/01/01 07:02:11;;;;;;;7.72;6.75;;;10.30;97.20;;;;;;1719211;28;20202;-87
2022/01/01 07:03:03;;;;;;;7.32;6.63;;;10.30;97.20;;;;;;1719228;28;20210;-88
2022/01/01 07:03:54;;;;;;;7.30;6.60;;;10.30;97.20;;;;;;1719683;28;20202;-88
2022/01/01 07:04:45;;;;;;;6.70;6.10;;;10.30;97.20;;;;;;1718859;28;20285;-88
2022/01/01 07:05:36;;;;;;;6.88;6.28;;;10.30;97.20;;;;;;1718634;28;20216;-88
2022/01/01 07:06:28;;;;;;;6.60;5.97;;;10.40;97.20;;;;;;1719143;28;20274;-87
2022/01/01 07:07:19;;;;;;;7.53;6.45;;;10.40;97.20;;;;;;1718742;28;20190;-87
2022/01/01 07:08:10;;;;;;;6.77;6.03;;;10.40;97.20;;;;;;1718526;28;20700;-87
2022/01/01 07:09:01;;;;;;;7.40;6.60;;;10.40;97.20;;;;;;1718753;28;20225;-87
2022/01/01 07:09:53;;;;;;;6.97;6.37;;;10.40;97.20;;;;;;1718582;28;20284;-87
2022/01/01 07:10:45;;;;;;;6.25;5.68;;;10.40;97.20;;;;;;1718828;28;20456;-87
2022/01/01 07:11:37;;;;;;;6.78;5.60;;;10.40;97.20;;;;;;1718473;28;20201;-88
2022/01/01 07:12:28;;;;;;;6.57;5.90;;;10.50;97.20;;;;;;1718085;28;20720;-87
2022/01/01 07:13:20;;;;;;;6.03;5.43;;;10.50;97.20;;;;;;1718530;28;20281;-86
2022/01/01 07:14:11;;;;;;;6.43;5.90;;;10.50;97.20;;;;;;1718524;28;20455;-88
2022/01/01 07:15:04;;;;;;;9.05;6.88;;;10.50;97.20;;;;;;1719040;28;20261;-87
2022/01/01 07:15:55;;;;;;;7.82;6.88;;;10.50;97.20;;;;;;1718718;28;20213;-87
2022/01/01 07:16:46;;;;;;;8.00;7.20;;;10.50;97.20;;;;;;1718304;28;20205;-87
2022/01/01 07:17:38;;;;;;;8.25;7.45;;;10.50;97.20;;;;;;1718382;28;20975;-87
2022/01/01 07:18:30;;;;;;;8.82;7.93;;;10.50;97.20;;;;;;1718366;28;20696;-88
2022/01/01 07:19:21;;;;;;;8.60;7.63;;;10.50;97.20;;;;;;1718236;28;20205;-87
2022/01/01 07:20:13;;;;;;;8.33;6.80;;;10.50;97.20;;;;;;1718964;28;20571;-87
2022/01/01 07:21:04;;;;;;;9.00;7.80;;;10.50;97.20;;;;;;1718406;28;20425;-87
2022/01/01 07:21:59;;;;;;;9.00;7.47;;;10.50;97.20;;;;;;1718386;28;20685;-87
2022/01/01 07:22:50;;;;;;;7.63;6.70;;;10.50;97.20;;;;;;1718474;28;20460;-88
2022/01/01 07:23:43;;;;;;;7.47;6.73;;;10.50;97.20;;;;;;1718026;28;20717;-87
2022/01/01 07:24:33;;;;;;;8.43;7.63;;;10.50;97.20;;;;;;1719009;28;20210;-88
2022/01/01 07:25:26;;;;;;;9.07;7.37;;;10.50;97.20;;;;;;1718918;28;20238;-87
2022/01/01 07:26:17;;;;;;;8.43;7.13;;;10.60;97.20;;;;;;1718805;28;20212;-88
2022/01/01 07:27:09;;;;;;;8.43;7.63;;;10.60;97.20;;;;;;1717977;28;20367;-88
2022/01/01 07:28:00;;;;;;;8.10;6.45;;;10.60;97.20;;;;;;1718083;28;20241;-87
2022/01/01 07:28:51;;;;;;;9.10;6.60;;;10.60;97.20;;;;;;1718312;28;20336;-87
2022/01/01 07:29:42;;;;;;;9.63;7.30;;;10.60;97.20;;;;;;1718956;28;20673;-87
2022/01/01 07:30:34;;;;;;;7.70;6.73;;;10.60;97.20;;;;;;1718343;28;20661;-88
2022/01/01 07:31:25;;;;;;;7.63;6.82;;;10.60;97.20;;;;;;1718650;28;20208;-88
2022/01/01 07:32:17;;;;;;;7.63;6.90;;;10.60;97.20;;;;;;1718660;28;20201;-87
2022/01/01 07:33:12;;;;;;;8.30;7.40;;;10.60;97.20;;;;;;1718518;28;20212;-87
2022/01/01 07:34:04;;;;;;;7.25;6.55;;;10.60;97.20;;;;;;1718413;28;20584;-87
2022/01/01 07:34:55;;;;;;;7.93;7.13;;;10.60;97.20;;;;;;1718255;28;20209;-88
2022/01/01 07:35:47;;;;;;;7.32;6.63;;;10.50;97.20;;;;;;1718109;28;20752;-87
2022/01/01 07:36:37;;;;;;;7.25;6.35;;;10.50;97.20;;;;;;1718540;28;20264;-88
2022/01/01 07:37:29;;;;;;;8.17;7.40;;;10.50;97.20;;;;;;1718117;28;20206;-87
2022/01/01 07:38:21;;;;;;;7.65;6.35;;;10.50;97.20;;;;;;1718196;28;20448;-87
2022/01/01 07:39:13;;;;;;;8.05;7.13;;;10.50;97.20;;;;;;1718597;28;20209;-87
2022/01/01 07:40:06;;;;;;;8.20;7.40;;;10.50;97.20;;;;;;1718894;28;20206;-88
2022/01/01 07:40:58;;;;;;;8.00;7.20;;;10.50;97.20;;;;;;1718193;28;20230;-87
2022/01/01 07:41:48;;;;;;;8.32;7.43;;;10.50;97.20;;;;;;1718347;28;20205;-87
2022/01/01 07:42:41;;;;;;;8.33;7.27;;;10.50;97.20;;;;;;1718152;28;20244;-88
2022/01/01 07:43:33;;;;;;;7.70;6.90;;;10.40;97.20;;;;;;1718438;28;20468;-87
2022/01/01 07:44:24;;;;;;;6.75;6.15;;;10.40;97.20;;;;;;1718506;28;20681;-88
2022/01/01 07:45:16;;;;;;;8.23;7.43;;;10.40;97.20;;;;;;1717929;28;20208;-87
2022/01/01 07:46:07;;;;;;;7.55;6.57;;;10.40;97.20;;;;;;1718140;28;20460;-87
2022/01/01 07:46:58;;;;;;;7.60;6.30;;;10.40;97.20;;;;;;1718181;28;20204;-88
2022/01/01 07:47:49;;;;;;;8.13;7.25;;;10.40;97.20;;;;;;1717949;28;20233;-88
2022/01/01 07:48:42;;;;;;;8.00;7.30;;;10.30;97.20;;;;;;1717806;28;20293;-88
2022/01/01 07:49:33;;;;;;;7.53;6.72;;;10.40;97.20;;;;;;1718036;28;20205;-88
2022/01/01 07:50:25;;;;;;;7.53;6.83;;;10.30;97.20;;;;;;1717789;28;20266;-87
2022/01/01 07:51:16;;;;;;;7.72;6.93;;;10.40;97.20;;;;;;1718329;28;20233;-87
2022/01/01 07:52:07;;;;;;;9.00;7.40;;;10.30;97.20;;;;;;1718088;28;20227;-87
2022/01/01 07:52:58;;;;;;;8.25;7.00;;;10.30;97.20;;;;;;1717989;28;20230;-87
2022/01/01 07:53:50;;;;;;;7.93;7.13;;;10.30;97.20;;;;;;1717798;28;20218;-87
2022/01/01 07:54:41;;;;;;;7.57;6.82;;;10.30;97.20;;;;;;1717605;28;20202;-87
2022/01/01 07:55:32;;;;;;;7.10;6.50;;;10.30;97.20;;;;;;1717693;28;20682;-88
2022/01/01 07:56:23;;;;;;;7.85;6.15;;;10.30;97.20;;;;;;1718432;28;20665;-88
2022/01/01 07:57:15;;;;;;;6.57;5.97;;;10.30;97.20;;;;;;1717822;28;20725;-88
2022/01/01 07:58:08;;;;;;;8.07;6.80;;;10.30;97.20;;;;;;1716927;28;20221;-88
2022/01/01 07:58:58;;;;;;;7.70;5.97;;;10.30;97.20;;;;;;1717782;28;20206;-87
2022/01/01 07:59:50;;;;;;;6.73;6.07;;;10.30;97.20;;;;;;1718644;28;20225;-88
2022/01/01 08:00:41;;;;;;;7.50;6.70;;;10.20;97.20;;;;;;1718090;28;20206;-87
2022/01/01 08:01:33;;;;;;;6.30;5.03;;;10.20;97.20;;;;;;1717827;28;20206;-88
2022/01/01 08:02:23;;;;;;;6.82;6.13;;;10.20;97.20;;;;;;1718330;28;20685;-88
2022/01/01 08:03:15;;;;;;;6.57;5.97;;;10.20;97.20;;;;;;1718011;28;20585;-88
2022/01/01 08:04:07;;;;;;;6.50;5.80;;;10.20;97.20;;;;;;1718090;28;20202;-87
2022/01/01 08:04:59;;;;;;;6.82;6.13;;;10.20;97.20;;;;;;1717588;28;20202;-88
2022/01/01 08:05:50;;;;;;;7.22;5.38;;;10.20;97.20;;;;;;1717833;28;20202;-87
2022/01/01 08:06:41;;;;;;;6.50;5.90;;;10.30;97.20;;;;;;1718137;28;20233;-87
2022/01/01 08:07:32;;;;;;;6.93;6.03;;;10.30;97.20;;;;;;1718009;28;20202;-87
2022/01/01 08:08:24;;;;;;;6.93;5.83;;;10.30;97.20;;;;;;1717844;28;20233;-87
2022/01/01 08:09:16;;;;;;;7.80;6.65;;;10.30;97.20;;;;;;1717627;28;20209;-87
2022/01/01 08:10:09;;;;;;;7.25;6.55;;;10.30;97.20;;;;;;1718032;28;20202;-87
2022/01/01 08:11:00;;;;;;;7.68;6.40;;;10.30;97.20;;;;;;1717740;28;20570;-87
2022/01/01 08:11:51;;;;;;;8.80;7.28;;;10.30;97.20;;;;;;1717412;28;20232;-87
2022/01/01 08:12:43;;;;;;;7.72;6.70;;;10.30;97.20;;;;;;1717707;28;20206;-88
2022/01/01 08:13:36;;;;;;;7.47;6.63;;;10.30;97.20;;;;;;1717522;28;20205;-89
2022/01/01 08:14:28;;;;;;;7.68;6.60;;;10.40;97.20;;;;;;1717753;28;20692;-88
2022/01/01 08:15:19;;;;;;;7.22;6.38;;;10.40;97.20;;;;;;1717632;28;20209;-87
2022/01/01 08:16:10;;;;;;;6.90;6.17;;;10.40;97.20;;;;;;1717645;28;20216;-87
2022/01/01 08:17:03;;;;;;;6.68;5.97;;;10.40;97.20;;;;;;1717199;28;20692;-87
2022/01/01 08:17:55;;;;;;;7.05;6.00;;;10.40;97.20;;;;;;1716930;28;20213;-88
2022/01/01 08:18:46;;;;;;;6.93;6.30;;;10.40;97.20;;;;;;1717549;28;20694;-88
2022/01/01 08:19:39;;;;;;;6.00;5.47;;;10.40;97.20;;;;;;1717080;28;20253;-87
2022/01/01 08:20:30;;;;;;;6.32;5.72;;;10.40;97.20;;;;;;1717446;28;20228;-87
2022/01/01 08:21:22;;;;;;;6.90;6.07;;;10.50;97.20;;;;;;1717327;28;20227;-87
2022/01/01 08:22:14;;;;;;;6.85;6.18;;;10.50;97.20;;;;;;1718197;28;20206;-87
2022/01/01 08:23:06;;;;;;;6.55;5.65;;;10.50;97.20;;;;;;1717928;28;20253;-87
2022/01/01 08:23:57;;;;;;;7.72;5.97;;;10.50;97.20;;;;;;1717382;28;20217;-87
2022/01/01 08:24:48;;;;;;;5.53;5.03;;;10.60;97.20;;;;;;1717602;28;20196;-87
2022/01/01 08:25:40;;;;;;;6.50;5.88;;;10.60;97.20;;;;;;1717638;28;20720;-86
2022/01/01 08:26:31;;;;;;;6.40;5.80;;;10.60;97.20;;;;;;1719575;28;20293;-89
2022/01/01 08:27:22;;;;;;;7.40;5.88;;;10.60;97.20;;;;;;1720550;28;20202;-88
2022/01/01 08:28:15;;;;;;;7.93;6.40;;;10.60;97.20;;;;;;1719287;28;20217;-89
2022/01/01 08:29:06;;;;;;;6.90;6.20;;;10.70;97.20;;;;;;1719366;28;20599;-88
2022/01/01 08:29:57;;;;;;;9.00;6.70;;;10.70;97.20;;;;;;1720163;28;20206;-88
2022/01/01 08:30:48;;;;;;;7.10;6.40;;;10.70;97.20;;;;;;1719908;28;20571;-88
2022/01/01 08:31:40;;;;;;;7.20;6.53;;;10.70;97.20;;;;;;1720124;28;20197;-87
2022/01/01 08:32:31;;;;;;;6.70;6.10;;;10.70;97.20;;;;;;1721191;28;20211;-89
2022/01/01 08:33:23;;;;;;;7.43;6.40;;;10.70;97.20;;;;;;1726692;28;20251;-88
2022/01/01 08:34:14;;;;;;;6.72;5.80;;;10.80;97.20;;;;;;1720791;28;20197;-88
2022/01/01 08:35:08;;;;;;;6.43;5.73;;;10.80;97.20;;;;;;1720037;28;20221;-88
2022/01/01 08:36:03;;;;;;;5.93;5.38;;;10.80;97.20;;;;;;1720214;28;20218;-89
2022/01/01 08:36:54;;;;;;;6.53;5.75;;;10.80;97.20;;;;;;1720402;28;20206;-88
2022/01/01 08:37:45;;;;;;;12.40;6.37;;;10.90;97.20;;;;;;1719911;28;20233;-88
2022/01/01 08:38:36;;;;;;;6.50;5.82;;;10.90;97.20;;;;;;1720013;28;20449;-88
2022/01/01 08:39:28;;;;;;;6.50;5.90;;;10.90;97.20;;;;;;1720474;28;20213;-89
2022/01/01 08:40:19;;;;;;;6.55;5.95;;;10.90;97.20;;;;;;1719925;28;20198;-89
2022/01/01 08:41:11;;;;;;;6.90;5.73;;;11.00;97.20;;;;;;1720360;28;20265;-88
2022/01/01 08:42:43;;;;;;;7.10;5.57;;;11.00;97.20;;;;;;1720181;28;20209;-88
2022/01/01 08:45:37;;;;;;;9.43;6.18;;;11.10;97.20;;;;;;1714268;28;20266;-87
2022/01/01 08:46:29;;;;;;;6.63;6.03;;;11.20;97.20;;;;;;1711828;28;20291;-89
2022/01/01 08:47:24;;;;;;;6.18;5.57;;;11.20;97.20;;;;;;1713457;28;20262;-88
2022/01/01 08:48:16;;;;;;;5.88;5.38;;;11.30;97.20;;;;;;1713100;28;20234;-88
2022/01/01 08:49:07;;;;;;;6.88;6.15;;;11.30;97.20;;;;;;1712760;28;20698;-88
2022/01/01 08:49:58;;;;;;;6.83;6.03;;;11.30;97.20;;;;;;1713171;28;20230;-89
2022/01/01 08:50:50;;;;;;;6.40;5.80;;;11.40;97.20;;;;;;1715175;28;20469;-89
2022/01/01 08:51:42;;;;;;;6.50;5.90;;;11.40;97.20;;;;;;1719658;28;20210;-89
2022/01/01 08:52:34;;;;;;;6.25;5.75;;;11.50;97.20;;;;;;1713512;28;20226;-87
2022/01/01 08:53:24;;;;;;;6.90;5.85;;;11.50;97.20;;;;;;1712545;28;20230;-88
2022/01/01 08:54:16;;;;;;;8.20;6.30;;;11.60;97.20;;;;;;1713099;28;20262;-88
2022/01/01 08:55:08;;;;;;;7.18;6.47;;;11.70;97.20;;;;;;1712251;28;20221;-88
2022/01/01 08:55:59;;;;;;;6.65;6.05;;;11.70;97.20;;;;;;1715759;28;20190;-88
2022/01/01 08:56:50;;;;;;;8.98;6.05;;;11.80;97.20;;;;;;1719094;28;20202;-89
2022/01/01 08:57:42;;;;;;;6.43;5.73;;;11.90;97.20;;;;;;1717679;28;20296;-87
2022/01/01 08:58:33;;;;;;;6.95;5.80;;;11.90;97.20;;;;;;1718686;28;20448;-89
2022/01/01 08:59:25;;;;;;;7.40;5.68;;;12.00;97.20;;;;;;1717901;28;20194;-87
2022/01/01 09:00:16;;;;;;;5.82;5.32;;;12.10;97.20;;;;;;1718716;28;20210;-88
2022/01/01 09:01:09;;;;;;;5.90;5.30;;;12.10;97.20;;;;;;1718844;28;20198;-87
2022/01/01 09:02:02;;;;;;;6.05;5.15;;;12.10;97.20;;;;;;1719276;28;20206;-88
2022/01/01 09:02:53;;;;;;;6.93;5.57;;;12.20;97.20;;;;;;1718541;28;20212;-88
2022/01/01 09:03:44;;;;;;;5.90;5.30;;;12.20;97.20;;;;;;1718036;28;20583;-87
2022/01/01 09:04:36;;;;;;;6.07;5.40;;;12.20;97.20;;;;;;1717685;28;20230;-88
2022/01/01 09:05:27;;;;;;;5.78;5.18;;;12.20;97.20;;;;;;1718400;28;20674;-88
2022/01/01 09:06:19;;;;;;;6.60;5.43;;;12.30;97.20;;;;;;1718039;28;20190;-88
2022/01/01 09:07:12;;;;;;;5.78;5.28;;;12.30;97.20;;;;;;1718646;28;20194;-89
2022/01/01 09:08:03;;;;;;;5.78;4.88;;;12.30;97.20;;;;;;1717836;28;20225;-89
2022/01/01 09:08:55;;;;;;;6.88;5.20;;;12.40;97.20;;;;;;1718401;28;20204;-88
2022/01/01 09:09:46;;;;;;;5.40;4.90;;;12.40;97.20;;;;;;1718012;28;20205;-87
2022/01/01 09:10:37;;;;;;;5.40;4.90;;;12.50;97.20;;;;;;1717217;28;20261;-88
2022/01/01 09:11:28;;;;;;;5.25;4.75;;;12.50;97.20;;;;;;1717197;28;20228;-89
2022/01/01 09:12:20;;;;;;;5.70;5.20;;;12.60;97.20;;;;;;1716855;28;20198;-87
2022/01/01 09:13:10;;;;;;;5.63;5.13;;;12.60;97.20;;;;;;1717803;28;20210;-88
2022/01/01 09:14:02;;;;;;;5.50;5.00;;;12.60;97.20;;;;;;1716664;28;20685;-88
2022/01/01 09:14:54;;;;;;;5.55;5.05;;;12.60;97.20;;;;;;1716443;28;20201;-87
2022/01/01 09:15:45;;;;;;;5.05;4.65;;;12.70;97.20;;;;;;1717379;28;20202;-88
2022/01/01 09:16:38;;;;;;;5.75;4.78;;;12.70;97.20;;;;;;1716770;28;20213;-87
2022/01/01 09:17:31;;;;;;;4.55;4.15;;;12.80;97.20;;;;;;1715338;28;20206;-87
2022/01/01 09:18:22;;;;;;;5.53;5.03;;;12.90;97.20;;;;;;1718156;28;20751;-88
2022/01/01 09:19:13;;;;;;;5.32;4.82;;;12.90;97.20;;;;;;1718097;28;20684;-88
2022/01/01 09:20:06;;;;;;;4.77;4.20;;;13.00;97.20;;;;;;1718015;28;20273;-89
2022/01/01 09:20:57;;;;;;;5.40;4.90;;;13.00;97.20;;;;;;1717734;28;20205;-88
2022/01/01 09:21:48;;;;;;;4.87;4.47;;;13.00;97.20;;;;;;1718098;28;20293;-88
2022/01/01 09:22:39;;;;;;;5.38;4.88;;;13.10;97.20;;;;;;1718979;28;20437;-88
2022/01/01 09:23:31;;;;;;;5.90;5.33;;;13.10;97.20;;;;;;1719262;28;20225;-89
2022/01/01 09:24:22;;;;;;;4.63;4.22;;;13.20;97.20;;;;;;1718372;28;20201;-88
2022/01/01 09:25:14;;;;;;;6.40;4.90;;;13.20;97.20;;;;;;1718922;28;20197;-88
2022/01/01 09:26:05;;;;;;;4.55;4.15;;;13.30;97.20;;;;;;1718316;28;20232;-89
2022/01/01 09:26:56;;;;;;;4.63;4.22;;;13.30;97.20;;;;;;1718705;28;20314;-88
2022/01/01 09:27:47;;;;;;;5.05;4.32;;;13.40;97.20;;;;;;1718396;28;20216;-88
2022/01/01 09:28:39;;;;;;;4.90;4.50;;;13.40;97.20;;;;;;1718222;28;20261;-88
2022/01/01 09:29:30;;;;;;;5.40;4.82;;;13.40;97.20;;;;;;1718470;28;20496;-87
2022/01/01 09:30:23;;;;;;;5.10;4.60;;;13.50;97.20;;;;;;1718358;28;20205;-88
2022/01/01 09:31:14;;;;;;;4.60;4.20;;;13.50;97.20;;;;;;1718659;28;20297;-88
2022/01/01 09:32:06;;;;;;;4.57;4.17;;;13.60;97.20;;;;;;1718537;28;20206;-88
2022/01/01 09:32:58;;;;;;;5.45;4.90;;;13.60;97.20;;;;;;1718280;28;20728;-89
2022/01/01 09:33:50;;;;;;;4.60;4.20;;;13.70;97.20;;;;;;1717950;28;20284;-88
2022/01/01 09:34:40;;;;;;;4.57;4.15;;;13.70;97.20;;;;;;1718153;28;20210;-89
2022/01/01 09:35:32;;;;;;;4.40;4.00;;;13.70;97.20;;;;;;1718085;28;20761;-88
2022/01/01 09:36:23;;;;;;;4.82;4.32;;;13.70;97.20;;;;;;1717851;28;20205;-88
2022/01/01 09:37:15;;;;;;;4.40;4.00;;;13.70;97.20;;;;;;1718229;28;20204;-87
2022/01/01 09:38:06;;;;;;;5.15;4.30;;;13.70;97.20;;;;;;1716965;28;20477;-87
2022/01/01 09:38:57;;;;;;;4.37;4.07;;;13.80;97.20;;;;;;1717467;28;20198;-87
2022/01/01 09:39:49;;;;;;;4.85;4.07;;;13.80;97.20;;;;;;1717611;28;20210;-87
2022/01/01 09:40:40;;;;;;;4.07;3.70;;;13.80;97.20;;;;;;1717740;28;20596;-87
2022/01/01 09:41:32;;;;;;;4.60;4.20;;;13.80;97.20;;;;;;1718009;28;20644;-88
2022/01/01 09:42:24;;;;;;;5.95;3.63;;;13.90;97.20;;;;;;1717572;28;20456;-87
2022/01/01 09:43:16;;;;;;;4.05;3.75;;;13.90;97.20;;;;;;1717896;28;20216;-87
2022/01/01 09:44:13;;;;;;;4.25;3.47;;;13.90;97.20;;;;;;1718152;28;20202;-87
2022/01/01 09:45:06;;;;;;;4.60;4.15;;;14.00;97.20;;;;;;1717983;28;20264;-87
2022/01/01 09:45:59;;;;;;;4.03;3.63;;;14.10;97.20;;;;;;1717703;28;20209;-86
2022/01/01 09:46:51;;;;;;;3.42;3.13;;;14.10;97.20;;;;;;1717925;28;20194;-87
2022/01/01 09:47:43;;;;;;;4.30;3.90;;;14.20;97.20;;;;;;1717653;28;20683;-89
2022/01/01 09:48:35;;;;;;;4.00;3.47;;;14.30;97.20;;;;;;1718736;28;20204;-87
2022/01/01 09:49:27;;;;;;;4.20;3.80;;;14.30;97.20;;;;;;1718514;28;20288;-87
2022/01/01 09:50:18;;;;;;;4.00;3.50;;;14.40;97.20;;;;;;1717818;28;20213;-87
2022/01/01 09:51:09;;;;;;;4.50;3.30;;;14.50;97.20;;;;;;1718303;28;20206;-87
2022/01/01 09:52:00;;;;;;;4.45;3.60;;;14.60;97.20;;;;;;1717870;28;20457;-87
2022/01/01 09:52:52;;;;;;;3.60;3.30;;;14.60;97.20;;;;;;1718641;28;20194;-88
2022/01/01 09:53:43;;;;;;;3.50;2.97;;;14.70;97.20;;;;;;1719070;28;20229;-87
2022/01/01 09:54:34;;;;;;;4.40;4.00;;;14.70;97.20;;;;;;1717934;28;20261;-87
2022/01/01 09:55:26;;;;;;;3.72;3.33;;;14.80;97.20;;;;;;1718609;28;20205;-88
2022/01/01 09:56:18;;;;;;;4.00;3.60;;;14.80;97.20;;;;;;1718426;28;20212;-87
2022/01/01 09:57:10;;;;;;;6.93;3.92;;;14.90;97.20;;;;;;1717187;28;20198;-87
2022/01/01 09:58:02;;;;;;;3.75;3.45;;;14.90;97.20;;;;;;1716398;28;20213;-87
2022/01/01 09:58:54;;;;;;;4.00;3.60;;;15.00;97.20;;;;;;1717541;28;20205;-86
2022/01/01 09:59:45;;;;;;;3.72;3.35;;;15.00;97.20;;;;;;1717632;28;20658;-87
2022/01/01 10:00:36;;;;;;;3.50;3.20;;;15.10;97.20;;;;;;1718343;28;20558;-87
2022/01/01 10:01:28;;;;;;;3.70;3.40;;;15.20;97.20;;;;;;1716911;28;20201;-87
2022/01/01 10:02:19;;;;;;;3.80;3.50;;;15.20;97.20;;;;;;1716584;28;20205;-87
2022/01/01 10:03:14;;;;;;;3.30;2.90;;;15.30;97.20;;;;;;1716786;28;20288;-89
2022/01/01 10:04:13;;;;;;;4.75;3.40;;;15.40;97.20;;;;;;1716208;28;20269;-87
2022/01/01 10:05:07;;;;;;;3.67;3.30;;;15.50;97.20;;;;;;1716101;28;20202;-86
2022/01/01 10:05:59;;;;;;;3.20;2.90;;;15.50;97.20;;;;;;1716993;28;20497;-85
2022/01/01 10:07:03;;;;;;;3.30;3.00;;;15.60;97.20;;;;;;1715560;28;20217;-85
2022/01/01 10:07:54;;;;;;;3.60;3.30;;;15.70;97.20;;;;;;1715403;28;20292;-84
2022/01/01 10:08:47;;;;;;;3.83;3.33;;;15.70;97.20;;;;;;1715239;28;20202;-85
2022/01/01 10:09:38;;;;;;;3.28;2.85;;;15.80;97.20;;;;;;1715210;28;20471;-86
2022/01/01 10:10:30;;;;;;;3.83;3.42;;;15.90;97.20;;;;;;1714895;28;20293;-86
2022/01/01 10:11:22;;;;;;;3.63;3.33;;;15.90;97.20;;;;;;1716095;28;20202;-85
2022/01/01 10:12:16;;;;;;;3.47;3.17;;;16.00;97.20;;;;;;1716182;28;20229;-86
2022/01/01 10:13:11;;;;;;;3.85;3.20;;;16.10;97.20;;;;;;1716594;28;20294;-85
2022/01/01 10:14:06;;;;;;;3.38;3.08;;;16.20;97.20;;;;;;1716004;28;20268;-86
2022/01/01 10:14:57;;;;;;;3.58;3.28;;;16.20;97.20;;;;;;1715917;28;20364;-86
2022/01/01 10:15:49;;;;;;;4.20;3.00;;;16.30;97.20;;;;;;1716184;28;20209;-85
2022/01/01 10:16:44;;;;;;;3.35;3.05;;;16.40;97.20;;;;;;1715380;28;20202;-85
2022/01/01 10:17:35;;;;;;;3.75;3.45;;;16.50;97.20;;;;;;1714986;28;20658;-86
2022/01/01 10:18:31;;;;;;;3.37;3.00;;;16.60;97.20;;;;;;1715872;28;20800;-86
2022/01/01 10:19:30;;;;;;;3.38;3.08;;;16.80;97.20;;;;;;1715127;28;20216;-85
2022/01/01 10:20:22;;;;;;;4.05;2.95;;;16.90;97.20;;;;;;1714524;28;20210;-84
2022/01/01 10:21:16;;;;;;;3.25;2.95;;;17.00;97.20;;;;;;1714093;28;20236;-84
2022/01/01 10:22:12;;;;;;;3.90;3.45;;;17.20;97.20;;;;;;1714259;28;20217;-84
2022/01/01 10:23:10;;;;;;;3.15;2.85;;;17.30;97.20;;;;;;1714546;28;20229;-87
2022/01/01 10:24:02;;;;;;;3.15;2.70;;;17.50;97.20;;;;;;1715451;28;20198;-88
2022/01/01 10:27:45;;;;;;;3.35;3.05;;;17.90;97.20;;;;;;1700402;29;20203;-88
2022/01/01 10:28:37;;;;;;;4.18;2.75;;;18.10;97.20;;;;;;1700495;29;20199;-88
2022/01/01 10:29:31;;;;;;;3.40;3.10;;;18.30;97.20;;;;;;1710576;28;20221;-88
2022/01/01 10:30:26;;;;;;;5.05;3.60;;;18.40;97.20;;;;;;1714824;28;20277;-87
2022/01/01 10:31:16;;;;;;;3.35;3.05;;;18.60;97.20;;;;;;1717256;28;20217;-88
2022/01/01 10:32:10;;;;;;;3.70;2.67;;;18.70;97.20;;;;;;1717781;28;20289;-90
2022/01/01 10:33:04;;;;;;;3.60;3.20;;;18.90;97.20;;;;;;1719168;28;20214;-88
2022/01/01 10:33:56;;;;;;;5.30;3.40;;;19.00;97.20;;;;;;1716346;28;20245;-88
2022/01/01 10:34:49;;;;;;;3.40;3.10;;;19.10;97.20;;;;;;1716288;28;20399;-89